Time;durP1;ratioP1;P1;durP2;ratioP2;P2;SDS_P1;SDS_P2;PMS_P1;PMS_P2;Temp;Humidity;BMP_temperature;BMP_pressure;BME280_temperature;BME280_humidity;BME280_pressure;Samples;Min_cycle;Max_cycle;Signal;HPM_P1;HPM_P2
2022/03/23 00:01:55;;;;;;;23.23;14.13;;;6.00;99.90;;;;;;5068953;28;20177;-69
2022/03/23 00:04:21;;;;;;;25.60;14.80;;;6.00;99.90;;;;;;5061048;28;20191;-69
2022/03/23 00:06:47;;;;;;;24.73;15.37;;;6.00;99.90;;;;;;5067339;28;20268;-70
2022/03/23 00:09:14;;;;;;;24.17;14.63;;;5.90;99.90;;;;;;5075681;28;20667;-70
2022/03/23 00:11:40;;;;;;;24.00;14.93;;;5.90;99.90;;;;;;5070239;28;20204;-70
2022/03/23 00:14:06;;;;;;;23.70;15.10;;;5.80;99.90;;;;;;5067811;28;20447;-70
2022/03/23 00:16:36;;;;;;;21.37;14.10;;;5.90;99.90;;;;;;5067047;28;20426;-70
2022/03/23 00:19:03;;;;;;;26.70;14.70;;;5.80;99.90;;;;;;5064817;28;20455;-70
2022/03/23 00:21:28;;;;;;;23.73;14.43;;;5.80;99.90;;;;;;5050094;28;20469;-70
2022/03/23 00:23:54;;;;;;;29.53;15.50;;;5.80;99.90;;;;;;5051759;28;20932;-70
2022/03/23 00:26:19;;;;;;;21.30;15.00;;;5.80;99.90;;;;;;5067527;28;20180;-70
2022/03/23 00:28:45;;;;;;;23.50;14.77;;;5.80;99.90;;;;;;5065374;28;20204;-70
2022/03/23 00:31:11;;;;;;;23.00;15.07;;;5.70;99.90;;;;;;5069933;28;20173;-70
2022/03/23 00:33:37;;;;;;;21.83;14.90;;;5.60;99.90;;;;;;5052733;28;20352;-70
2022/03/23 00:36:04;;;;;;;24.50;16.20;;;5.70;99.90;;;;;;5070177;28;20415;-70
2022/03/23 00:38:29;;;;;;;25.93;15.03;;;5.70;99.90;;;;;;5071498;28;20445;-70
2022/03/23 00:40:55;;;;;;;23.10;15.03;;;5.60;99.90;;;;;;5069362;28;20422;-70
2022/03/23 00:43:21;;;;;;;21.40;14.83;;;5.20;99.90;;;;;;5058491;28;20207;-69
2022/03/23 00:45:47;;;;;;;19.63;13.53;;;5.40;99.90;;;;;;5061252;28;20192;-69
2022/03/23 00:48:13;;;;;;;23.10;15.33;;;5.30;99.90;;;;;;5048017;28;20204;-70
2022/03/23 00:50:38;;;;;;;22.23;14.20;;;5.30;99.90;;;;;;5070131;28;20168;-69
2022/03/23 00:53:04;;;;;;;22.90;15.40;;;5.20;99.90;;;;;;5062626;28;21158;-70
2022/03/23 00:55:30;;;;;;;30.00;14.80;;;5.10;99.90;;;;;;5058714;28;20255;-69
2022/03/23 00:57:55;;;;;;;29.87;14.90;;;5.10;99.90;;;;;;5049828;28;20226;-69
2022/03/23 01:00:22;;;;;;;19.90;14.03;;;5.00;99.90;;;;;;5068333;28;20173;-69
2022/03/23 01:02:48;;;;;;;23.00;14.27;;;5.00;99.90;;;;;;5067814;28;20430;-70
2022/03/23 01:05:15;;;;;;;24.10;15.40;;;5.00;99.90;;;;;;5061471;28;20460;-70
2022/03/23 01:07:41;;;;;;;24.43;14.73;;;5.00;99.90;;;;;;5055032;28;20925;-71
2022/03/23 01:10:12;;;;;;;24.20;14.83;;;5.00;99.90;;;;;;5075723;28;20446;-70
2022/03/23 01:12:43;;;;;;;22.57;14.93;;;4.90;99.90;;;;;;5062099;28;20625;-70
2022/03/23 01:15:10;;;;;;;25.07;14.10;;;4.90;99.90;;;;;;5050278;28;20489;-70
2022/03/23 01:17:37;;;;;;;20.80;13.80;;;4.80;99.90;;;;;;5053958;28;20453;-70
2022/03/23 01:20:08;;;;;;;19.97;14.00;;;4.80;99.90;;;;;;5068431;28;20523;-69
2022/03/23 01:22:37;;;;;;;23.40;13.90;;;4.80;99.90;;;;;;5061987;28;20439;-70
2022/03/23 01:25:08;;;;;;;22.77;14.00;;;4.80;99.90;;;;;;5050302;28;20799;-70
2022/03/23 01:27:38;;;;;;;20.17;13.87;;;4.70;99.90;;;;;;5048297;28;20839;-70
2022/03/23 01:30:05;;;;;;;23.17;14.00;;;4.70;99.90;;;;;;5052094;28;20769;-70
2022/03/23 01:32:33;;;;;;;24.90;14.63;;;4.60;99.90;;;;;;5063853;28;20949;-70
2022/03/23 01:34:58;;;;;;;25.30;14.50;;;4.60;99.90;;;;;;5052896;28;20468;-70
2022/03/23 01:37:24;;;;;;;25.10;14.80;;;4.50;99.90;;;;;;5063222;28;20546;-70
2022/03/23 01:39:49;;;;;;;23.80;14.50;;;4.50;99.90;;;;;;5067724;28;20241;-70
2022/03/23 01:42:15;;;;;;;24.03;14.40;;;4.50;99.90;;;;;;5050898;28;20184;-70
2022/03/23 01:44:40;;;;;;;20.97;13.47;;;4.50;99.90;;;;;;5058496;28;20649;-70
2022/03/23 01:47:08;;;;;;;20.10;13.47;;;4.40;99.90;;;;;;5075866;28;20267;-70
2022/03/23 01:49:44;;;;;;;25.60;16.27;;;4.40;99.90;;;;;;5082904;28;20200;-70
2022/03/23 01:52:12;;;;;;;23.50;15.23;;;4.40;99.90;;;;;;5053867;28;21000;-70
2022/03/23 01:54:39;;;;;;;24.23;15.40;;;4.40;99.90;;;;;;5055499;28;20582;-69
2022/03/23 01:57:07;;;;;;;21.90;15.50;;;4.60;99.90;;;;;;5068142;28;20402;-70
2022/03/23 01:59:34;;;;;;;27.90;15.23;;;4.40;99.90;;;;;;5053934;28;20438;-70
2022/03/23 02:01:59;;;;;;;26.87;14.47;;;4.30;99.90;;;;;;5060275;28;20456;-70
2022/03/23 02:04:26;;;;;;;21.70;14.23;;;4.10;99.90;;;;;;5066598;28;20453;-70
2022/03/23 02:06:52;;;;;;;23.67;14.47;;;4.00;99.90;;;;;;5066990;28;20192;-70
2022/03/23 02:09:19;;;;;;;25.20;14.93;;;4.50;99.90;;;;;;5072632;28;20434;-71
2022/03/23 02:11:45;;;;;;;23.27;15.50;;;4.30;99.90;;;;;;5065572;28;20458;-71
2022/03/23 02:14:12;;;;;;;22.30;15.07;;;3.90;99.90;;;;;;5065549;28;20411;-71
2022/03/23 02:16:46;;;;;;;20.57;14.17;;;3.80;99.90;;;;;;5066204;28;20503;-71
2022/03/23 02:19:12;;;;;;;24.63;14.30;;;3.80;99.90;;;;;;5057677;28;20593;-71
2022/03/23 02:21:42;;;;;;;25.10;16.00;;;3.80;99.90;;;;;;5055443;28;20435;-71
2022/03/23 02:24:09;;;;;;;24.43;15.33;;;4.20;99.90;;;;;;5058814;28;20420;-71
2022/03/23 02:26:34;;;;;;;25.90;15.67;;;3.80;99.90;;;;;;5064146;28;21007;-71
2022/03/23 02:29:01;;;;;;;26.00;14.50;;;3.70;99.90;;;;;;5062922;28;20439;-71
2022/03/23 02:31:26;;;;;;;27.60;16.00;;;3.70;99.90;;;;;;5047313;28;20643;-71
2022/03/23 02:33:53;;;;;;;25.73;14.80;;;3.60;99.90;;;;;;5053222;28;20509;-71
2022/03/23 02:36:18;;;;;;;26.80;16.03;;;1.80;99.90;;;;;;5065095;28;20693;-71
2022/03/23 02:38:44;;;;;;;26.50;14.67;;;3.50;99.90;;;;;;5074187;28;20481;-71
2022/03/23 02:41:10;;;;;;;22.87;14.20;;;3.90;99.90;;;;;;5082033;28;20317;-71
2022/03/23 02:43:36;;;;;;;24.80;14.80;;;3.50;99.90;;;;;;5063501;28;20177;-70
2022/03/23 02:46:02;;;;;;;22.60;14.70;;;3.50;99.90;;;;;;5046251;28;21114;-70
2022/03/23 02:48:28;;;;;;;24.50;15.23;;;3.60;99.90;;;;;;5048313;28;20196;-69
2022/03/23 02:50:53;;;;;;;21.87;14.57;;;3.60;99.90;;;;;;5051505;28;20419;-70
2022/03/23 03:02:16;;;;;;;23.70;15.00;;;3.50;99.90;;;;;;5065884;28;20993;-71
2022/03/23 03:04:42;;;;;;;23.63;14.50;;;3.60;99.90;;;;;;5008672;28;20748;-71
2022/03/23 03:07:08;;;;;;;27.07;14.67;;;4.10;99.90;;;;;;5055838;28;20444;-71
2022/03/23 03:09:33;;;;;;;24.83;14.57;;;4.00;99.90;;;;;;5083245;28;20574;-71
2022/03/23 03:11:59;;;;;;;25.67;14.53;;;3.70;99.90;;;;;;5069339;28;20203;-71
2022/03/23 03:14:24;;;;;;;20.57;14.50;;;3.60;99.90;;;;;;5071150;28;20351;-71
2022/03/23 03:16:50;;;;;;;27.17;15.40;;;3.60;99.90;;;;;;5062332;28;20634;-71
2022/03/23 03:19:15;;;;;;;22.30;15.00;;;3.50;99.90;;;;;;5069024;28;20213;-70
2022/03/23 03:21:42;;;;;;;26.17;15.27;;;3.50;99.90;;;;;;5069585;28;20546;-71
2022/03/23 03:24:08;;;;;;;20.67;13.67;;;3.40;99.90;;;;;;5071151;28;20646;-70
2022/03/23 03:26:34;;;;;;;23.60;14.10;;;3.30;99.90;;;;;;5063171;28;20808;-71
2022/03/23 03:28:59;;;;;;;26.33;15.50;;;3.30;99.90;;;;;;5053335;28;20285;-70
2022/03/23 03:31:25;;;;;;;29.67;15.00;;;3.30;99.90;;;;;;5070181;28;20217;-70
2022/03/23 03:33:50;;;;;;;23.30;15.23;;;3.50;99.90;;;;;;5068545;28;20180;-71
2022/03/23 03:36:16;;;;;;;21.43;14.20;;;3.70;99.90;;;;;;5051962;28;20261;-70
2022/03/23 03:38:44;;;;;;;21.87;13.73;;;3.70;99.90;;;;;;5067977;28;20198;-71
2022/03/23 03:41:09;;;;;;;24.17;15.03;;;3.40;99.90;;;;;;5051008;28;20177;-71
2022/03/23 03:43:35;;;;;;;22.10;14.03;;;3.20;99.90;;;;;;5050439;28;20461;-71
2022/03/23 03:46:02;;;;;;;24.20;14.77;;;3.20;99.90;;;;;;5067181;28;20234;-71
2022/03/23 03:48:28;;;;;;;26.57;15.40;;;3.10;99.90;;;;;;5050381;28;20313;-71
2022/03/23 03:50:53;;;;;;;25.40;14.73;;;3.00;99.90;;;;;;5067062;28;20488;-71
2022/03/23 03:53:19;;;;;;;21.63;13.77;;;2.90;99.90;;;;;;5069192;28;20466;-71
2022/03/23 03:55:45;;;;;;;24.50;14.47;;;2.90;99.90;;;;;;5064401;28;20231;-71
2022/03/23 03:58:12;;;;;;;29.30;14.40;;;2.90;99.90;;;;;;5051113;28;20224;-71
2022/03/23 04:00:38;;;;;;;20.63;14.00;;;2.90;99.90;;;;;;5066566;28;20508;-71
2022/03/23 04:03:05;;;;;;;22.50;14.73;;;3.50;99.90;;;;;;5069947;28;20479;-71
2022/03/23 04:05:31;;;;;;;34.57;14.10;;;3.00;99.90;;;;;;5055834;28;20480;-71
2022/03/23 04:07:57;;;;;;;21.97;14.47;;;3.20;99.90;;;;;;5061478;28;20424;-70
2022/03/23 04:10:26;;;;;;;20.40;13.50;;;3.10;99.90;;;;;;5070614;28;20419;-71
2022/03/23 04:12:52;;;;;;;22.70;14.13;;;2.70;99.90;;;;;;5069182;28;20882;-70
2022/03/23 04:15:19;;;;;;;21.33;13.00;;;3.10;99.90;;;;;;5069860;28;20888;-70
2022/03/23 04:17:45;;;;;;;26.23;14.40;;;3.20;99.90;;;;;;5055079;28;20432;-70
2022/03/23 04:20:11;;;;;;;24.03;13.83;;;2.60;99.90;;;;;;5060458;28;20477;-70
2022/03/23 04:22:38;;;;;;;20.83;14.17;;;2.50;99.90;;;;;;5068239;28;20181;-70
2022/03/23 04:25:08;;;;;;;24.17;14.80;;;2.50;99.90;;;;;;5054224;28;20501;-71
2022/03/23 04:27:36;;;;;;;23.80;14.83;;;2.60;99.90;;;;;;5062342;28;20994;-70
2022/03/23 04:30:02;;;;;;;19.50;13.43;;;2.50;99.90;;;;;;5061516;28;20446;-71
2022/03/23 04:32:28;;;;;;;23.60;14.47;;;2.40;99.90;;;;;;5067994;28;20465;-71
2022/03/23 04:34:54;;;;;;;26.83;14.73;;;1.90;99.90;;;;;;5052631;28;20827;-69
2022/03/23 04:37:19;;;;;;;22.80;13.97;;;2.30;99.90;;;;;;5064606;28;20214;-70
2022/03/23 04:39:45;;;;;;;19.50;13.30;;;2.70;99.90;;;;;;5080172;28;20226;-71
2022/03/23 04:42:10;;;;;;;29.10;13.97;;;2.80;99.90;;;;;;5080425;28;20241;-70
2022/03/23 04:44:35;;;;;;;19.67;13.90;;;2.50;99.90;;;;;;5060312;28;20199;-71
2022/03/23 04:47:01;;;;;;;20.03;12.77;;;2.50;99.90;;;;;;5059119;28;20187;-72
2022/03/23 04:49:27;;;;;;;22.07;14.07;;;2.50;99.90;;;;;;5066429;28;20200;-72
2022/03/23 04:51:52;;;;;;;19.40;13.00;;;2.50;99.90;;;;;;5069616;28;20239;-72
2022/03/23 04:54:18;;;;;;;22.03;13.27;;;2.90;99.90;;;;;;5053679;28;20269;-72
2022/03/23 04:56:43;;;;;;;22.43;14.23;;;2.40;99.90;;;;;;5049980;28;20185;-72
2022/03/23 04:59:09;;;;;;;22.63;13.43;;;2.40;99.90;;;;;;5060930;28;20232;-72
2022/03/23 05:01:35;;;;;;;21.87;13.93;;;2.40;99.90;;;;;;5066517;28;20230;-72
2022/03/23 05:04:01;;;;;;;21.57;13.70;;;2.30;99.90;;;;;;5057048;28;20165;-72
2022/03/23 05:06:26;;;;;;;25.00;13.83;;;2.50;99.90;;;;;;5049578;28;20433;-72
2022/03/23 05:08:52;;;;;;;24.73;14.37;;;2.90;99.90;;;;;;5076909;28;20522;-72
2022/03/23 05:11:17;;;;;;;22.00;13.20;;;2.50;99.90;;;;;;5069913;28;20194;-72
2022/03/23 05:13:43;;;;;;;20.67;13.57;;;2.80;99.90;;;;;;5061760;28;20212;-72
2022/03/23 05:16:09;;;;;;;23.97;14.50;;;2.50;99.90;;;;;;5066666;28;20640;-72
2022/03/23 05:18:35;;;;;;;21.37;13.87;;;2.50;99.90;;;;;;5068654;28;20623;-72
2022/03/23 05:21:01;;;;;;;21.70;14.20;;;2.40;99.90;;;;;;5064769;28;20438;-72
2022/03/23 05:23:26;;;;;;;20.50;13.33;;;2.40;99.90;;;;;;5066367;28;20215;-71
2022/03/23 05:25:52;;;;;;;21.13;13.63;;;2.90;99.90;;;;;;5065919;28;20702;-72
2022/03/23 05:28:18;;;;;;;18.27;13.00;;;2.80;99.90;;;;;;5068313;28;20192;-72
2022/03/23 05:30:43;;;;;;;20.23;13.33;;;2.40;99.90;;;;;;5059562;28;20208;-72
2022/03/23 05:33:09;;;;;;;21.73;13.67;;;2.40;99.90;;;;;;5061005;28;20204;-71
2022/03/23 05:35:34;;;;;;;27.40;14.03;;;2.40;99.90;;;;;;5057600;28;20214;-71
2022/03/23 05:38:00;;;;;;;21.73;14.00;;;2.50;99.90;;;;;;5058283;28;20249;-70
2022/03/23 05:40:25;;;;;;;21.30;13.30;;;2.50;99.90;;;;;;5067915;28;20639;-70
2022/03/23 05:42:51;;;;;;;19.97;13.23;;;3.00;99.90;;;;;;5055429;28;20683;-70
2022/03/23 05:45:17;;;;;;;20.60;13.40;;;2.50;99.90;;;;;;5047155;28;20179;-70
2022/03/23 05:47:43;;;;;;;21.77;13.30;;;2.50;99.90;;;;;;5050110;28;20270;-70
2022/03/23 05:50:10;;;;;;;23.20;14.80;;;2.90;99.90;;;;;;5078570;28;20617;-71
2022/03/23 05:52:36;;;;;;;44.83;22.93;;;2.60;99.90;;;;;;5065268;28;20204;-70
2022/03/23 05:55:03;;;;;;;31.50;16.57;;;2.90;99.90;;;;;;5066383;28;20506;-71
2022/03/23 05:57:29;;;;;;;27.10;13.77;;;2.60;99.90;;;;;;5066217;28;20742;-71
2022/03/23 05:59:55;;;;;;;21.50;14.50;;;2.60;99.90;;;;;;5065321;28;20485;-71
2022/03/23 06:02:20;;;;;;;25.67;13.90;;;2.60;99.90;;;;;;5067842;28;20325;-72
2022/03/23 06:04:46;;;;;;;23.13;13.90;;;2.70;99.90;;;;;;5057230;28;20203;-72
2022/03/23 06:07:12;;;;;;;23.00;13.63;;;3.10;99.90;;;;;;5048261;28;20162;-72
2022/03/23 06:09:38;;;;;;;22.23;13.73;;;2.80;99.90;;;;;;5056811;28;20697;-72
2022/03/23 06:12:04;;;;;;;20.73;12.20;;;3.10;99.90;;;;;;5064092;28;20450;-72
2022/03/23 06:14:30;;;;;;;20.87;13.47;;;2.80;99.90;;;;;;5067532;28;20675;-72
2022/03/23 06:16:56;;;;;;;20.23;13.40;;;2.90;99.90;;;;;;5066632;28;20427;-72
2022/03/23 06:19:21;;;;;;;22.43;13.40;;;3.20;99.90;;;;;;5070779;28;20254;-72
2022/03/23 06:21:47;;;;;;;25.30;14.90;;;3.10;99.90;;;;;;5051753;28;20171;-72
2022/03/23 06:24:12;;;;;;;22.03;14.03;;;3.30;99.90;;;;;;5052174;28;20181;-72
2022/03/23 06:26:38;;;;;;;21.50;13.63;;;4.00;99.90;;;;;;5048603;28;20256;-71
2022/03/23 06:29:04;;;;;;;22.40;14.23;;;4.20;99.90;;;;;;5059131;28;20630;-73
2022/03/23 06:31:29;;;;;;;20.57;13.40;;;5.10;99.90;;;;;;5058527;28;20424;-73
2022/03/23 06:33:55;;;;;;;20.53;13.87;;;5.80;99.90;;;;;;5057477;28;20192;-73
2022/03/23 06:36:21;;;;;;;22.30;13.87;;;6.50;99.90;;;;;;5054148;28;20183;-74
2022/03/23 06:38:48;;;;;;;19.97;13.40;;;7.20;99.90;;;;;;5056273;28;20271;-74
2022/03/23 06:41:13;;;;;;;20.50;13.13;;;8.00;99.90;;;;;;5061959;28;20184;-74
2022/03/23 06:43:39;;;;;;;18.10;13.10;;;8.50;99.90;;;;;;5055228;28;20432;-71
2022/03/23 06:46:05;;;;;;;18.00;13.43;;;8.50;99.90;;;;;;5048325;28;20169;-71
2022/03/23 06:48:31;;;;;;;17.80;13.60;;;8.00;99.90;;;;;;5066318;28;20200;-71
2022/03/23 06:50:56;;;;;;;17.40;12.20;;;7.60;99.90;;;;;;5074519;28;20168;-70
2022/03/23 06:53:22;;;;;;;19.87;12.50;;;7.20;99.90;;;;;;5066692;28;20917;-71
2022/03/23 06:55:47;;;;;;;16.57;11.40;;;7.50;99.90;;;;;;5061951;28;20168;-70
2022/03/23 06:58:13;;;;;;;17.50;11.90;;;8.20;99.90;;;;;;5053767;28;20196;-70
2022/03/23 07:00:39;;;;;;;16.03;11.00;;;8.60;98.90;;;;;;5064282;28;20714;-73
2022/03/23 07:03:05;;;;;;;15.83;11.80;;;8.80;98.90;;;;;;5059970;28;20263;-73
2022/03/23 07:05:31;;;;;;;16.83;11.50;;;8.60;97.60;;;;;;5067945;28;20489;-73
2022/03/23 07:10:40;;;;;;;14.90;11.37;;;8.00;98.60;;;;;;5056605;28;21323;-73
2022/03/23 07:13:06;;;;;;;13.90;10.20;;;7.80;98.50;;;;;;5060216;28;20545;-73
2022/03/23 07:15:31;;;;;;;17.67;11.07;;;7.90;98.60;;;;;;5058917;28;20172;-72
2022/03/23 07:17:57;;;;;;;15.10;10.83;;;8.50;98.90;;;;;;5057718;28;20496;-73
2022/03/23 07:20:24;;;;;;;14.20;10.53;;;9.00;95.60;;;;;;5065214;28;20752;-73
2022/03/23 07:22:49;;;;;;;16.30;10.70;;;9.80;96.00;;;;;;5068103;28;20188;-74
2022/03/23 07:25:15;;;;;;;14.40;10.60;;;10.70;91.10;;;;;;5075949;28;20489;-74
2022/03/23 07:27:41;;;;;;;12.83;10.53;;;11.40;83.80;;;;;;5064779;28;20180;-74
2022/03/23 07:30:07;;;;;;;12.50;10.67;;;12.10;83.20;;;;;;5060747;28;20259;-74
2022/03/23 07:32:34;;;;;;;20.10;11.90;;;12.40;77.30;;;;;;5054137;28;20197;-71
2022/03/23 07:34:59;;;;;;;17.17;12.43;;;13.10;73.30;;;;;;5079965;28;20462;-72
2022/03/23 07:37:25;;;;;;;19.00;13.10;;;13.80;69.20;;;;;;5067753;28;20422;-73
2022/03/23 07:39:50;;;;;;;17.53;14.00;;;14.30;62.30;;;;;;5067006;28;20215;-73
2022/03/23 07:42:16;;;;;;;20.13;14.60;;;14.70;53.60;;;;;;5067404;28;20262;-74
2022/03/23 07:44:41;;;;;;;19.83;13.47;;;15.00;58.00;;;;;;5062962;28;20176;-74
2022/03/23 07:47:10;;;;;;;16.50;13.40;;;15.80;51.20;;;;;;5061830;28;20185;-73
2022/03/23 07:49:36;;;;;;;17.00;13.80;;;16.20;50.80;;;;;;5075318;28;20241;-73
2022/03/23 07:52:03;;;;;;;17.63;13.83;;;17.40;50.00;;;;;;5065601;28;20454;-72
2022/03/23 07:54:29;;;;;;;21.73;14.60;;;16.90;43.80;;;;;;5063409;28;20256;-73
2022/03/23 07:56:54;;;;;;;18.53;13.70;;;17.10;43.90;;;;;;5052630;28;20412;-72
2022/03/23 07:59:20;;;;;;;19.17;15.13;;;17.20;44.00;;;;;;5069855;28;20468;-73
2022/03/23 08:01:45;;;;;;;18.93;14.30;;;17.20;44.00;;;;;;5069465;28;20667;-73
2022/03/23 08:04:11;;;;;;;16.67;13.13;;;17.20;44.00;;;;;;5074051;28;20404;-71
2022/03/23 08:06:37;;;;;;;16.83;14.10;;;18.00;44.70;;;;;;5065023;28;20662;-71
2022/03/23 08:09:04;;;;;;;16.50;13.90;;;18.50;45.10;;;;;;5069565;28;20210;-71
2022/03/23 08:11:30;;;;;;;16.70;13.30;;;19.20;45.80;;;;;;5076622;28;20187;-72
2022/03/23 08:13:56;;;;;;;20.50;14.33;;;19.90;40.70;;;;;;5069638;28;20471;-72
2022/03/23 08:16:22;;;;;;;17.10;13.93;;;20.40;33.60;;;;;;5081389;28;20405;-72
2022/03/23 08:18:48;;;;;;;17.80;14.57;;;20.50;32.40;;;;;;5068284;28;20480;-72
2022/03/23 08:21:13;;;;;;;17.83;14.63;;;20.40;35.00;;;;;;5074374;28;20233;-72
2022/03/23 08:23:40;;;;;;;19.03;14.70;;;20.90;30.70;;;;;;5063197;28;20239;-71
2022/03/23 08:26:09;;;;;;;16.33;14.47;;;20.90;29.00;;;;;;5066105;28;20184;-72
2022/03/23 08:28:36;;;;;;;19.17;15.27;;;21.10;29.50;;;;;;5051893;28;20524;-72
2022/03/23 08:31:01;;;;;;;16.53;14.30;;;21.20;28.40;;;;;;5060787;28;20557;-71
2022/03/23 08:33:32;;;;;;;19.03;14.27;;;21.80;27.90;;;;;;5079569;28;20456;-72
2022/03/23 08:35:58;;;;;;;21.97;14.73;;;22.00;26.00;;;;;;5068376;28;20168;-72
2022/03/23 08:38:24;;;;;;;16.90;15.07;;;22.50;24.20;;;;;;5080998;28;20219;-71
2022/03/23 08:40:50;;;;;;;22.00;17.77;;;22.80;21.60;;;;;;5079052;28;20175;-72
2022/03/23 08:43:15;;;;;;;21.30;16.73;;;23.00;20.20;;;;;;5079151;28;20651;-72
2022/03/23 08:45:41;;;;;;;24.87;16.63;;;23.50;20.70;;;;;;5068816;28;20250;-71
2022/03/23 08:48:07;;;;;;;19.53;16.40;;;23.80;19.60;;;;;;5058111;28;20167;-72
2022/03/23 08:50:34;;;;;;;23.80;16.80;;;24.30;18.10;;;;;;5074088;28;20271;-72
2022/03/23 08:53:01;;;;;;;20.67;17.20;;;24.50;17.00;;;;;;5070072;28;20202;-73
2022/03/23 08:55:28;;;;;;;19.85;17.35;;;24.70;14.70;;;;;;5067480;28;20207;-72
2022/03/23 08:57:54;;;;;;;21.73;17.50;;;25.30;15.20;;;;;;5068942;28;20173;-72
2022/03/23 09:00:20;;;;;;;23.77;16.98;;;25.50;10.80;;;;;;5067570;28;20168;-72
2022/03/23 09:02:45;;;;;;;19.13;16.00;;;25.60;11.90;;;;;;5071103;28;20176;-72
2022/03/23 09:05:14;;;;;;;25.92;15.98;;;26.00;12.00;;;;;;5082356;28;20175;-72
2022/03/23 09:07:42;;;;;;;24.23;16.42;;;26.60;9.70;;;;;;5078912;28;20658;-72
2022/03/23 09:10:10;;;;;;;17.88;15.63;;;27.20;6.50;;;;;;5071148;28;20196;-72
2022/03/23 09:12:36;;;;;;;18.85;15.75;;;27.30;6.30;;;;;;5069205;28;20227;-72
2022/03/23 09:15:03;;;;;;;20.38;15.88;;;27.20;7.20;;;;;;5072462;28;20168;-72
2022/03/23 09:17:28;;;;;;;25.38;16.13;;;27.20;5.80;;;;;;5067492;28;20258;-72
2022/03/23 09:19:55;;;;;;;19.35;16.10;;;27.60;4.70;;;;;;5073635;28;20325;-72
2022/03/23 09:22:21;;;;;;;17.90;15.10;;;27.80;4.40;;;;;;5073476;28;20238;-72
2022/03/23 09:24:47;;;;;;;17.63;15.73;;;28.00;1.00;;;;;;5070595;28;20679;-72
2022/03/23 09:27:12;;;;;;;21.75;15.68;;;28.10;1.00;;;;;;5082197;28;20337;-72
2022/03/23 09:29:39;;;;;;;18.40;15.18;;;28.60;1.00;;;;;;5070984;28;20199;-72
2022/03/23 09:32:09;;;;;;;16.35;14.43;;;29.30;1.00;;;;;;5075194;28;20199;-73
2022/03/23 09:34:35;;;;;;;19.08;15.40;;;29.50;1.00;;;;;;5079206;28;20713;-72
2022/03/23 09:39:45;;;;;;;19.73;16.33;;;29.60;1.00;;;;;;5070482;28;20313;-72
2022/03/23 09:42:11;;;;;;;17.23;15.02;;;29.50;1.00;;;;;;5077876;28;20263;-72
2022/03/23 09:44:37;;;;;;;18.02;15.50;;;29.90;1.00;;;;;;5063103;28;20196;-72
2022/03/23 09:47:05;;;;;;;20.77;15.63;;;30.20;1.00;;;;;;5058764;28;20582;-72
2022/03/23 09:49:30;;;;;;;18.85;15.80;;;30.30;1.00;;;;;;5073986;28;20200;-72
2022/03/23 09:51:56;;;;;;;17.42;15.52;;;30.20;1.00;;;;;;5081742;28;20182;-72
2022/03/23 09:54:22;;;;;;;18.23;15.50;;;30.60;1.00;;;;;;5078191;28;20182;-72
2022/03/23 09:56:49;;;;;;;19.73;15.27;;;31.00;1.00;;;;;;5076885;28;20196;-72
2022/03/23 09:59:14;;;;;;;17.60;15.50;;;31.00;1.00;;;;;;5074767;28;20199;-72
2022/03/23 10:01:46;;;;;;;19.17;15.57;;;30.90;1.00;;;;;;5070892;28;20247;-72
2022/03/23 10:04:18;;;;;;;23.70;15.13;;;31.00;1.00;;;;;;5079081;28;20164;-72
2022/03/23 10:07:05;;;;;;;17.35;15.55;;;31.20;1.00;;;;;;5076447;28;20203;-73
2022/03/23 10:10:04;;;;;;;22.40;15.93;;;32.00;1.00;;;;;;5064749;28;20570;-73
2022/03/23 10:13:07;;;;;;;19.33;16.00;;;32.90;1.00;;;;;;5070866;28;20223;-74
2022/03/23 10:16:14;;;;;;;19.48;16.23;;;33.00;1.00;;;;;;5072138;28;20176;-73
2022/03/23 10:18:56;;;;;;;16.58;14.88;;;33.30;1.00;;;;;;5070664;28;20700;-73
2022/03/23 10:21:24;;;;;;;19.60;16.20;;;33.90;1.00;;;;;;5071464;28;20194;-73
2022/03/23 10:24:14;;;;;;;24.85;15.98;;;33.90;1.00;;;;;;5079585;28;20638;-73
2022/03/23 10:26:43;;;;;;;17.15;15.43;;;33.80;1.00;;;;;;5060308;28;20181;-72
2022/03/23 10:29:23;;;;;;;18.55;15.27;;;33.80;1.00;;;;;;5068433;28;20184;-73
2022/03/23 10:32:00;;;;;;;17.90;15.88;;;34.00;1.00;;;;;;5063846;28;20457;-74
2022/03/23 10:34:40;;;;;;;20.15;16.10;;;33.90;1.00;;;;;;5069881;28;20266;-72
2022/03/23 10:37:06;;;;;;;17.58;15.88;;;33.80;1.00;;;;;;5052642;28;20505;-74
2022/03/23 10:39:32;;;;;;;19.42;15.48;;;33.70;1.00;;;;;;5066763;28;20295;-73
2022/03/23 10:42:06;;;;;;;20.98;15.95;;;33.60;1.00;;;;;;5078618;28;20155;-74
2022/03/23 10:44:31;;;;;;;22.65;16.55;;;34.00;1.00;;;;;;5052916;28;20245;-73
2022/03/23 10:46:58;;;;;;;20.02;16.10;;;34.10;1.00;;;;;;5070512;28;20173;-73
2022/03/23 10:49:38;;;;;;;19.67;16.27;;;33.90;1.00;;;;;;5063485;28;20192;-73
2022/03/23 10:52:09;;;;;;;18.02;15.82;;;33.80;1.00;;;;;;5062419;28;20195;-73
2022/03/23 10:54:35;;;;;;;21.17;16.80;;;33.70;1.00;;;;;;5065435;28;20287;-72
2022/03/23 10:57:02;;;;;;;17.70;15.80;;;33.70;1.00;;;;;;5059981;28;20287;-72
2022/03/23 10:59:27;;;;;;;20.42;15.95;;;34.30;1.00;;;;;;5065295;28;20203;-73
2022/03/23 11:02:07;;;;;;;18.67;15.60;;;34.50;1.00;;;;;;5066865;28;20225;-75
2022/03/23 11:04:59;;;;;;;17.40;15.35;;;35.00;1.00;;;;;;5068019;28;20258;-75
2022/03/23 11:07:30;;;;;;;18.38;16.38;;;35.40;1.00;;;;;;5072362;28;20195;-75
2022/03/23 11:15:49;;;;;;;17.00;14.80;;;36.00;1.00;;;;;;5070780;28;20249;-74
2022/03/23 11:18:20;;;;;;;16.60;14.68;;;36.50;1.00;;;;;;5058428;28;20557;-74
2022/03/23 11:20:53;;;;;;;20.77;15.32;;;36.90;1.00;;;;;;5062710;28;20394;-74
2022/03/23 11:23:23;;;;;;;17.42;15.60;;;36.50;1.00;;;;;;5075338;28;20501;-74
2022/03/23 11:25:50;;;;;;;18.08;14.88;;;36.30;1.00;;;;;;5073729;28;20180;-74
2022/03/23 11:28:16;;;;;;;18.27;16.00;;;36.60;1.00;;;;;;5074674;28;20526;-73
2022/03/23 11:30:43;;;;;;;25.08;15.20;;;36.50;1.00;;;;;;5077088;28;20191;-74
2022/03/23 11:33:10;;;;;;;19.05;15.40;;;36.30;1.00;;;;;;5071597;28;20202;-75
2022/03/23 11:35:47;;;;;;;18.65;14.70;;;36.20;1.00;;;;;;5069184;28;20207;-74
2022/03/23 11:38:17;;;;;;;17.00;15.18;;;36.40;1.00;;;;;;5064364;28;20245;-71
2022/03/23 11:40:45;;;;;;;17.42;14.90;;;36.90;1.00;;;;;;5071380;28;20175;-71
2022/03/23 11:43:12;;;;;;;18.02;15.20;;;37.70;1.00;;;;;;5071375;28;20175;-71
2022/03/23 11:45:40;;;;;;;15.68;14.07;;;38.70;1.00;;;;;;5072660;28;20640;-73
2022/03/23 11:48:20;;;;;;;21.00;15.73;;;39.60;1.00;;;;;;5056323;28;20195;-73
2022/03/23 11:50:46;;;;;;;18.77;16.55;;;39.60;1.00;;;;;;5061938;28;20184;-72
2022/03/23 11:53:34;;;;;;;18.73;15.05;;;38.90;1.00;;;;;;5072059;28;20214;-73
2022/03/23 11:56:02;;;;;;;17.95;16.05;;;38.40;1.00;;;;;;5054851;28;20270;-73
2022/03/23 11:58:37;;;;;;;68.18;21.38;;;37.70;1.00;;;;;;5063974;28;20188;-73
2022/03/23 12:01:08;;;;;;;19.42;15.65;;;37.90;1.00;;;;;;5047754;28;20171;-73
2022/03/23 12:03:50;;;;;;;41.67;17.38;;;38.10;1.00;;;;;;5061278;28;20654;-72
2022/03/23 12:06:45;;;;;;;21.48;15.57;;;38.40;1.00;;;;;;5076794;28;20210;-72
2022/03/23 12:09:42;;;;;;;37.65;17.15;;;39.20;1.00;;;;;;5078175;28;20589;-72
2022/03/23 12:12:28;;;;;;;22.30;15.30;;;38.90;1.00;;;;;;5067693;28;20208;-72
2022/03/23 12:15:19;;;;;;;23.63;15.55;;;38.70;1.00;;;;;;5066656;28;20506;-72
2022/03/23 12:17:54;;;;;;;22.25;15.18;;;39.40;1.00;;;;;;5067860;28;20692;-73
2022/03/23 12:20:31;;;;;;;24.50;15.63;;;39.00;1.00;;;;;;5065054;28;20202;-73
2022/03/23 12:23:10;;;;;;;21.23;15.85;;;38.70;1.00;;;;;;5068980;28;20509;-72
2022/03/23 12:26:05;;;;;;;18.00;16.10;;;38.50;1.00;;;;;;5063477;28;20639;-72
2022/03/23 12:28:50;;;;;;;18.33;16.13;;;38.50;1.00;;;;;;5064380;28;20257;-72
2022/03/23 12:31:17;;;;;;;22.98;16.65;;;38.20;1.00;;;;;;5060457;28;20172;-72
2022/03/23 12:34:06;;;;;;;19.05;16.23;;;38.40;1.00;;;;;;5073175;28;20212;-72
2022/03/23 12:39:25;;;;;;;23.35;17.23;;;38.10;1.00;;;;;;5057112;28;20272;-72
2022/03/23 12:41:51;;;;;;;19.80;17.30;;;37.90;1.00;;;;;;5067871;28;20172;-72
2022/03/23 12:44:19;;;;;;;21.35;16.50;;;38.20;1.00;;;;;;5059683;28;20590;-72
2022/03/23 12:46:46;;;;;;;24.17;15.68;;;37.60;1.00;;;;;;5051746;28;20243;-72
2022/03/23 13:00:25;;;;;;;17.45;15.70;;;38.40;1.00;;;;;;5067713;28;20282;-72
2022/03/23 13:03:05;;;;;;;21.60;16.02;;;38.80;1.00;;;;;;5066972;28;20179;-72
2022/03/23 13:05:36;;;;;;;23.83;17.88;;;38.50;1.00;;;;;;5081893;28;20175;-72
2022/03/23 13:08:29;;;;;;;18.20;16.30;;;38.10;1.00;;;;;;5068958;28;20570;-73
2022/03/23 13:11:05;;;;;;;21.02;15.52;;;38.20;1.00;;;;;;5079352;28;20198;-73
2022/03/23 13:13:33;;;;;;;17.27;15.57;;;38.70;1.00;;;;;;5073004;28;20298;-74
2022/03/23 13:16:02;;;;;;;23.80;15.90;;;39.10;1.00;;;;;;5066664;28;20271;-73